Terminal Aerodrome Forecast
Issued by NWS

Home | Current Version | Previous Version | Text Only | Print | Product List | Glossary On
Versions: 1 2 3 4 5 6 7 8 9 10 11 12 13 14 15
000
FTUS45 KTFX 281743
TAFBZN
TAF
KBZN 281743Z 2818/2924 28008KT P6SM VCTS SCT050CB BKN250
      TEMPO 2819/2821 -TSRA BKN050CB
     FM282100 25010KT P6SM VCTS SCT060CB BKN090
     FM290000 32010KT P6SM VCSH SCT060 BKN090
     FM291600 VRB05KT P6SM SCT030=

USA.gov is the U.S. government's official web portal to all federal, state and local government web resources and services.